sensor_id;sensor_type;location;lat;lon;timestamp;pressure;altitude;pressure_sealevel;temperature;humidity
75555;BME280;66087;53.126;17.960;2024-01-30T00:02:25;102329.82;;;0.80;89.13
75555;BME280;66087;53.126;17.960;2024-01-30T00:04:51;102331.70;;;0.79;89.22
75555;BME280;66087;53.126;17.960;2024-01-30T00:07:17;102338.85;;;0.78;89.35
75555;BME280;66087;53.126;17.960;2024-01-30T00:09:46;102333.98;;;0.75;89.37
75555;BME280;66087;53.126;17.960;2024-01-30T00:12:13;102333.73;;;0.73;89.41
75555;BME280;66087;53.126;17.960;2024-01-30T00:14:41;102335.98;;;0.70;89.34
75555;BME280;66087;53.126;17.960;2024-01-30T00:17:09;102339.23;;;0.68;89.49
75555;BME280;66087;53.126;17.960;2024-01-30T00:19:35;102338.25;;;0.67;89.26
75555;BME280;66087;53.126;17.960;2024-01-30T00:22:02;102337.60;;;0.65;89.29
75555;BME280;66087;53.126;17.960;2024-01-30T00:24:28;102334.73;;;0.63;89.25
75555;BME280;66087;53.126;17.960;2024-01-30T00:26:54;102334.60;;;0.62;89.24
75555;BME280;66087;53.126;17.960;2024-01-30T00:29:20;102330.11;;;0.61;89.29
75555;BME280;66087;53.126;17.960;2024-01-30T00:31:48;102330.65;;;0.61;89.26
75555;BME280;66087;53.126;17.960;2024-01-30T00:34:14;102331.72;;;0.61;89.31
75555;BME280;66087;53.126;17.960;2024-01-30T00:36:41;102321.40;;;0.61;89.43
75555;BME280;66087;53.126;17.960;2024-01-30T00:39:07;102323.60;;;0.61;89.45
75555;BME280;66087;53.126;17.960;2024-01-30T00:41:35;102327.19;;;0.61;89.48
75555;BME280;66087;53.126;17.960;2024-01-30T00:44:01;102327.85;;;0.60;89.52
75555;BME280;66087;53.126;17.960;2024-01-30T00:46:27;102324.30;;;0.58;89.34
75555;BME280;66087;53.126;17.960;2024-01-30T00:48:54;102323.05;;;0.56;89.39
75555;BME280;66087;53.126;17.960;2024-01-30T00:51:20;102325.76;;;0.54;89.38
75555;BME280;66087;53.126;17.960;2024-01-30T00:53:46;102325.19;;;0.50;89.36
75555;BME280;66087;53.126;17.960;2024-01-30T00:56:12;102329.44;;;0.47;89.37
75555;BME280;66087;53.126;17.960;2024-01-30T00:58:39;102331.52;;;0.43;89.43
75555;BME280;66087;53.126;17.960;2024-01-30T01:01:05;102328.26;;;0.39;89.45
75555;BME280;66087;53.126;17.960;2024-01-30T01:03:33;102327.86;;;0.38;89.54
75555;BME280;66087;53.126;17.960;2024-01-30T01:05:59;102326.71;;;0.36;89.59
75555;BME280;66087;53.126;17.960;2024-01-30T01:08:25;102323.70;;;0.35;89.54
75555;BME280;66087;53.126;17.960;2024-01-30T01:10:52;102320.79;;;0.33;89.57
75555;BME280;66087;53.126;17.960;2024-01-30T01:13:18;102317.21;;;0.32;89.66
75555;BME280;66087;53.126;17.960;2024-01-30T01:15:45;102313.70;;;0.32;89.61
75555;BME280;66087;53.126;17.960;2024-01-30T01:18:11;102311.73;;;0.31;89.52
75555;BME280;66087;53.126;17.960;2024-01-30T01:20:37;102312.80;;;0.31;89.60
75555;BME280;66087;53.126;17.960;2024-01-30T01:23:03;102311.46;;;0.32;89.55
75555;BME280;66087;53.126;17.960;2024-01-30T01:25:29;102314.25;;;0.31;89.66
75555;BME280;66087;53.126;17.960;2024-01-30T01:27:55;102313.94;;;0.31;89.75
75555;BME280;66087;53.126;17.960;2024-01-30T01:30:22;102314.27;;;0.30;89.69
75555;BME280;66087;53.126;17.960;2024-01-30T01:32:49;102311.98;;;0.29;89.68
75555;BME280;66087;53.126;17.960;2024-01-30T01:35:22;102313.95;;;0.27;89.57
75555;BME280;66087;53.126;17.960;2024-01-30T01:37:50;102319.36;;;0.27;89.69
75555;BME280;66087;53.126;17.960;2024-01-30T01:40:22;102319.66;;;0.25;89.81
75555;BME280;66087;53.126;17.960;2024-01-30T01:42:50;102322.79;;;0.24;89.51
75555;BME280;66087;53.126;17.960;2024-01-30T01:45:18;102324.14;;;0.18;89.42
75555;BME280;66087;53.126;17.960;2024-01-30T01:47:48;102321.02;;;0.14;89.78
75555;BME280;66087;53.126;17.960;2024-01-30T01:50:18;102316.71;;;0.12;89.65
75555;BME280;66087;53.126;17.960;2024-01-30T01:52:47;102313.77;;;0.10;89.86
75555;BME280;66087;53.126;17.960;2024-01-30T01:55:15;102312.17;;;0.09;90.09
75555;BME280;66087;53.126;17.960;2024-01-30T01:57:42;102310.56;;;0.09;89.98
75555;BME280;66087;53.126;17.960;2024-01-30T02:00:09;102313.73;;;0.08;90.17
75555;BME280;66087;53.126;17.960;2024-01-30T02:02:36;102314.35;;;0.07;90.20
75555;BME280;66087;53.126;17.960;2024-01-30T02:05:04;102315.55;;;0.06;90.19
75555;BME280;66087;53.126;17.960;2024-01-30T02:07:30;102313.26;;;0.05;89.97
75555;BME280;66087;53.126;17.960;2024-01-30T02:09:56;102311.52;;;0.04;90.27
75555;BME280;66087;53.126;17.960;2024-01-30T02:12:22;102312.02;;;0.04;90.12
75555;BME280;66087;53.126;17.960;2024-01-30T02:14:49;102308.61;;;0.05;90.19
75555;BME280;66087;53.126;17.960;2024-01-30T02:17:15;102302.77;;;0.08;89.97
75555;BME280;66087;53.126;17.960;2024-01-30T02:19:42;102305.36;;;0.13;89.91
75555;BME280;66087;53.126;17.960;2024-01-30T02:22:09;102307.30;;;0.18;89.97
75555;BME280;66087;53.126;17.960;2024-01-30T02:24:36;102310.46;;;0.22;89.84
75555;BME280;66087;53.126;17.960;2024-01-30T02:27:02;102310.91;;;0.24;89.63
75555;BME280;66087;53.126;17.960;2024-01-30T02:29:28;102312.23;;;0.22;89.42
75555;BME280;66087;53.126;17.960;2024-01-30T02:31:54;102305.55;;;0.15;89.32
75555;BME280;66087;53.126;17.960;2024-01-30T02:34:20;102302.92;;;0.09;89.58
75555;BME280;66087;53.126;17.960;2024-01-30T02:36:47;102302.47;;;0.05;89.77
75555;BME280;66087;53.126;17.960;2024-01-30T02:39:13;102302.14;;;0.03;90.02
75555;BME280;66087;53.126;17.960;2024-01-30T02:41:39;102305.08;;;0.03;90.00
75555;BME280;66087;53.126;17.960;2024-01-30T02:44:05;102296.73;;;0.03;89.95
75555;BME280;66087;53.126;17.960;2024-01-30T02:46:31;102294.83;;;0.07;89.81
75555;BME280;66087;53.126;17.960;2024-01-30T02:48:57;102300.29;;;0.10;89.87
75555;BME280;66087;53.126;17.960;2024-01-30T02:51:23;102299.17;;;0.12;89.89
75555;BME280;66087;53.126;17.960;2024-01-30T02:53:49;102294.52;;;0.12;89.69
75555;BME280;66087;53.126;17.960;2024-01-30T02:56:15;102287.69;;;0.11;89.57
75555;BME280;66087;53.126;17.960;2024-01-30T02:58:41;102290.61;;;0.12;89.52
75555;BME280;66087;53.126;17.960;2024-01-30T03:01:07;102283.86;;;0.12;89.67
75555;BME280;66087;53.126;17.960;2024-01-30T03:03:33;102286.30;;;0.14;89.62
75555;BME280;66087;53.126;17.960;2024-01-30T03:06:01;102284.13;;;0.15;89.56
75555;BME280;66087;53.126;17.960;2024-01-30T03:08:28;102286.44;;;0.15;89.51
75555;BME280;66087;53.126;17.960;2024-01-30T03:10:54;102286.90;;;0.15;89.71
75555;BME280;66087;53.126;17.960;2024-01-30T03:13:21;102291.50;;;0.15;89.49
75555;BME280;66087;53.126;17.960;2024-01-30T03:15:49;102292.41;;;0.15;89.63
75555;BME280;66087;53.126;17.960;2024-01-30T03:18:15;102299.12;;;0.15;89.63
75555;BME280;66087;53.126;17.960;2024-01-30T03:20:41;102294.89;;;0.14;89.66
75555;BME280;66087;53.126;17.960;2024-01-30T03:23:07;102297.54;;;0.15;89.54
75555;BME280;66087;53.126;17.960;2024-01-30T03:25:33;102298.72;;;0.16;89.48
75555;BME280;66087;53.126;17.960;2024-01-30T03:27:59;102297.92;;;0.15;89.48
75555;BME280;66087;53.126;17.960;2024-01-30T03:30:25;102296.19;;;0.14;89.61
75555;BME280;66087;53.126;17.960;2024-01-30T03:32:51;102294.07;;;0.13;89.56
75555;BME280;66087;53.126;17.960;2024-01-30T03:35:19;102290.27;;;0.12;89.51
75555;BME280;66087;53.126;17.960;2024-01-30T03:37:46;102292.04;;;0.12;89.49
75555;BME280;66087;53.126;17.960;2024-01-30T03:40:12;102293.44;;;0.13;89.56
75555;BME280;66087;53.126;17.960;2024-01-30T03:42:38;102294.34;;;0.15;89.50
75555;BME280;66087;53.126;17.960;2024-01-30T03:45:05;102292.98;;;0.17;89.39
75555;BME280;66087;53.126;17.960;2024-01-30T03:47:31;102289.34;;;0.17;89.49
75555;BME280;66087;53.126;17.960;2024-01-30T03:49:57;102286.94;;;0.18;89.55
75555;BME280;66087;53.126;17.960;2024-01-30T03:52:26;102285.89;;;0.20;89.50
75555;BME280;66087;53.126;17.960;2024-01-30T03:54:52;102289.73;;;0.22;89.44
75555;BME280;66087;53.126;17.960;2024-01-30T03:57:18;102289.81;;;0.22;89.46
75555;BME280;66087;53.126;17.960;2024-01-30T03:59:44;102289.21;;;0.22;89.40
75555;BME280;66087;53.126;17.960;2024-01-30T04:02:11;102289.91;;;0.22;89.44
75555;BME280;66087;53.126;17.960;2024-01-30T04:04:37;102284.23;;;0.23;89.36
75555;BME280;66087;53.126;17.960;2024-01-30T04:07:03;102285.45;;;0.23;89.40
75555;BME280;66087;53.126;17.960;2024-01-30T04:09:29;102283.54;;;0.23;89.29
75555;BME280;66087;53.126;17.960;2024-01-30T04:11:56;102282.89;;;0.23;89.43
75555;BME280;66087;53.126;17.960;2024-01-30T04:14:22;102282.95;;;0.23;89.21
75555;BME280;66087;53.126;17.960;2024-01-30T04:16:48;102285.08;;;0.23;89.24
75555;BME280;66087;53.126;17.960;2024-01-30T04:19:15;102284.44;;;0.24;89.31
75555;BME280;66087;53.126;17.960;2024-01-30T04:21:41;102283.52;;;0.24;89.23
75555;BME280;66087;53.126;17.960;2024-01-30T04:24:07;102282.23;;;0.26;89.29
75555;BME280;66087;53.126;17.960;2024-01-30T04:26:33;102284.05;;;0.27;89.17
75555;BME280;66087;53.126;17.960;2024-01-30T04:28:59;102282.73;;;0.28;89.23
75555;BME280;66087;53.126;17.960;2024-01-30T04:31:25;102281.02;;;0.28;89.26
75555;BME280;66087;53.126;17.960;2024-01-30T04:33:51;102284.80;;;0.29;89.21
75555;BME280;66087;53.126;17.960;2024-01-30T04:36:17;102282.18;;;0.29;89.13
75555;BME280;66087;53.126;17.960;2024-01-30T04:38:43;102285.05;;;0.30;89.15
75555;BME280;66087;53.126;17.960;2024-01-30T04:41:09;102287.02;;;0.31;89.10
75555;BME280;66087;53.126;17.960;2024-01-30T04:43:35;102290.55;;;0.31;89.01
75555;BME280;66087;53.126;17.960;2024-01-30T04:46:02;102290.35;;;0.30;89.26
75555;BME280;66087;53.126;17.960;2024-01-30T04:48:28;102291.90;;;0.30;89.11
75555;BME280;66087;53.126;17.960;2024-01-30T04:50:54;102290.21;;;0.29;89.22
75555;BME280;66087;53.126;17.960;2024-01-30T04:53:22;102292.63;;;0.29;89.18
75555;BME280;66087;53.126;17.960;2024-01-30T04:55:48;102294.67;;;0.28;89.17
75555;BME280;66087;53.126;17.960;2024-01-30T04:58:14;102298.45;;;0.29;88.95
75555;BME280;66087;53.126;17.960;2024-01-30T05:00:40;102299.96;;;0.28;89.10
75555;BME280;66087;53.126;17.960;2024-01-30T05:03:06;102298.65;;;0.29;89.00
75555;BME280;66087;53.126;17.960;2024-01-30T05:05:33;102299.92;;;0.30;89.11
75555;BME280;66087;53.126;17.960;2024-01-30T05:07:59;102297.89;;;0.32;89.08
75555;BME280;66087;53.126;17.960;2024-01-30T05:10:25;102298.36;;;0.33;88.99
75555;BME280;66087;53.126;17.960;2024-01-30T05:12:51;102292.25;;;0.34;89.05
75555;BME280;66087;53.126;17.960;2024-01-30T05:15:17;102289.68;;;0.33;88.90
75555;BME280;66087;53.126;17.960;2024-01-30T05:17:44;102284.66;;;0.34;89.09
75555;BME280;66087;53.126;17.960;2024-01-30T05:20:10;102281.87;;;0.34;89.12
75555;BME280;66087;53.126;17.960;2024-01-30T05:22:36;102277.31;;;0.32;88.93
75555;BME280;66087;53.126;17.960;2024-01-30T05:25:04;102281.88;;;0.33;89.02
75555;BME280;66087;53.126;17.960;2024-01-30T05:27:30;102287.58;;;0.32;88.96
75555;BME280;66087;53.126;17.960;2024-01-30T05:29:56;102283.89;;;0.32;88.97
75555;BME280;66087;53.126;17.960;2024-01-30T05:32:22;102280.80;;;0.28;88.68
75555;BME280;66087;53.126;17.960;2024-01-30T05:34:49;102282.14;;;0.28;88.69
75555;BME280;66087;53.126;17.960;2024-01-30T05:37:16;102284.04;;;0.28;88.72
75555;BME280;66087;53.126;17.960;2024-01-30T05:39:44;102277.80;;;0.26;88.79
75555;BME280;66087;53.126;17.960;2024-01-30T05:42:10;102278.89;;;0.25;88.89
75555;BME280;66087;53.126;17.960;2024-01-30T05:44:36;102279.57;;;0.26;88.84
75555;BME280;66087;53.126;17.960;2024-01-30T05:47:04;102281.91;;;0.27;88.74
75555;BME280;66087;53.126;17.960;2024-01-30T05:49:30;102289.98;;;0.28;88.72
75555;BME280;66087;53.126;17.960;2024-01-30T05:51:56;102286.61;;;0.29;88.76
75555;BME280;66087;53.126;17.960;2024-01-30T05:54:25;102287.89;;;0.30;88.72
75555;BME280;66087;53.126;17.960;2024-01-30T05:56:51;102290.65;;;0.31;88.89
75555;BME280;66087;53.126;17.960;2024-01-30T05:59:17;102291.75;;;0.32;88.82
75555;BME280;66087;53.126;17.960;2024-01-30T06:01:47;102295.52;;;0.34;88.62
75555;BME280;66087;53.126;17.960;2024-01-30T06:04:14;102300.31;;;0.35;88.71
75555;BME280;66087;53.126;17.960;2024-01-30T06:06:41;102300.85;;;0.35;88.57
75555;BME280;66087;53.126;17.960;2024-01-30T06:09:07;102295.92;;;0.35;88.53
75555;BME280;66087;53.126;17.960;2024-01-30T06:11:39;102295.60;;;0.35;88.39
75555;BME280;66087;53.126;17.960;2024-01-30T06:14:05;102296.35;;;0.35;88.67
75555;BME280;66087;53.126;17.960;2024-01-30T06:16:31;102299.98;;;0.36;88.67
75555;BME280;66087;53.126;17.960;2024-01-30T06:18:58;102299.36;;;0.37;88.71
75555;BME280;66087;53.126;17.960;2024-01-30T06:21:25;102300.20;;;0.38;88.79
75555;BME280;66087;53.126;17.960;2024-01-30T06:23:53;102303.31;;;0.39;88.73
75555;BME280;66087;53.126;17.960;2024-01-30T06:26:19;102305.99;;;0.42;88.70
75555;BME280;66087;53.126;17.960;2024-01-30T06:28:45;102305.79;;;0.44;88.54
75555;BME280;66087;53.126;17.960;2024-01-30T06:31:11;102306.15;;;0.46;88.47
75555;BME280;66087;53.126;17.960;2024-01-30T06:33:38;102305.70;;;0.49;88.55
75555;BME280;66087;53.126;17.960;2024-01-30T06:36:04;102309.59;;;0.52;88.37
75555;BME280;66087;53.126;17.960;2024-01-30T06:38:34;102309.80;;;0.55;88.35
75555;BME280;66087;53.126;17.960;2024-01-30T06:41:00;102310.47;;;0.59;88.35
75555;BME280;66087;53.126;17.960;2024-01-30T06:43:26;102304.30;;;0.62;88.43
75555;BME280;66087;53.126;17.960;2024-01-30T06:45:54;102300.89;;;0.64;88.11
75555;BME280;66087;53.126;17.960;2024-01-30T06:48:21;102299.89;;;0.65;88.18
75555;BME280;66087;53.126;17.960;2024-01-30T06:50:48;102300.98;;;0.67;87.89
75555;BME280;66087;53.126;17.960;2024-01-30T06:53:15;102298.36;;;0.68;88.05
75555;BME280;66087;53.126;17.960;2024-01-30T06:55:44;102300.61;;;0.71;88.02
75555;BME280;66087;53.126;17.960;2024-01-30T06:58:10;102303.98;;;0.76;87.97
75555;BME280;66087;53.126;17.960;2024-01-30T07:00:37;102304.73;;;0.78;87.99
75555;BME280;66087;53.126;17.960;2024-01-30T07:03:03;102304.23;;;0.79;87.70
75555;BME280;66087;53.126;17.960;2024-01-30T07:05:32;102305.60;;;0.80;87.79
75555;BME280;66087;53.126;17.960;2024-01-30T07:08:04;102307.89;;;0.81;87.63
75555;BME280;66087;53.126;17.960;2024-01-30T07:11:07;102309.74;;;0.84;87.86
75555;BME280;66087;53.126;17.960;2024-01-30T07:13:34;102313.77;;;0.88;87.51
75555;BME280;66087;53.126;17.960;2024-01-30T07:16:06;102313.13;;;0.93;87.63
75555;BME280;66087;53.126;17.960;2024-01-30T07:18:44;102307.58;;;0.99;87.40
75555;BME280;66087;53.126;17.960;2024-01-30T07:21:11;102308.80;;;1.04;87.12
75555;BME280;66087;53.126;17.960;2024-01-30T07:23:47;102309.91;;;1.10;87.21
75555;BME280;66087;53.126;17.960;2024-01-30T07:26:14;102311.34;;;1.15;87.16
75555;BME280;66087;53.126;17.960;2024-01-30T07:28:46;102309.95;;;1.19;86.80
75555;BME280;66087;53.126;17.960;2024-01-30T07:31:12;102306.39;;;1.24;86.66
75555;BME280;66087;53.126;17.960;2024-01-30T07:33:38;102314.42;;;1.30;86.45
75555;BME280;66087;53.126;17.960;2024-01-30T07:36:09;102314.52;;;1.35;86.59
75555;BME280;66087;53.126;17.960;2024-01-30T07:38:36;102315.55;;;1.38;86.06
75555;BME280;66087;53.126;17.960;2024-01-30T07:41:10;102314.79;;;1.43;86.04
75555;BME280;66087;53.126;17.960;2024-01-30T07:43:38;102310.24;;;1.48;86.52
75555;BME280;66087;53.126;17.960;2024-01-30T07:46:05;102313.94;;;1.55;86.27
75555;BME280;66087;53.126;17.960;2024-01-30T07:48:33;102311.86;;;1.61;86.11
75555;BME280;66087;53.126;17.960;2024-01-30T07:51:00;102313.10;;;1.67;86.12
75555;BME280;66087;53.126;17.960;2024-01-30T07:53:29;102309.53;;;1.73;86.23
75555;BME280;66087;53.126;17.960;2024-01-30T07:55:55;102315.31;;;1.79;86.07
75555;BME280;66087;53.126;17.960;2024-01-30T07:58:21;102313.80;;;1.85;86.28
75555;BME280;66087;53.126;17.960;2024-01-30T08:00:51;102313.35;;;1.91;86.09
75555;BME280;66087;53.126;17.960;2024-01-30T08:03:19;102317.10;;;1.97;85.95
75555;BME280;66087;53.126;17.960;2024-01-30T08:05:47;102319.56;;;2.05;85.97
75555;BME280;66087;53.126;17.960;2024-01-30T08:08:15;102322.58;;;2.12;85.61
75555;BME280;66087;53.126;17.960;2024-01-30T08:10:42;102325.83;;;2.19;84.60
75555;BME280;66087;53.126;17.960;2024-01-30T08:13:17;102324.20;;;2.25;84.37
75555;BME280;66087;53.126;17.960;2024-01-30T08:15:49;102322.66;;;2.32;84.79
75555;BME280;66087;53.126;17.960;2024-01-30T08:18:16;102324.76;;;2.41;84.63
75555;BME280;66087;53.126;17.960;2024-01-30T08:20:42;102322.58;;;2.50;84.67
75555;BME280;66087;53.126;17.960;2024-01-30T08:23:08;102321.33;;;2.58;84.16
75555;BME280;66087;53.126;17.960;2024-01-30T08:25:34;102319.70;;;2.66;84.38
75555;BME280;66087;53.126;17.960;2024-01-30T08:28:02;102317.98;;;2.74;83.07
75555;BME280;66087;53.126;17.960;2024-01-30T08:30:34;102317.34;;;2.82;82.40
75555;BME280;66087;53.126;17.960;2024-01-30T08:33:00;102315.27;;;2.90;83.03
75555;BME280;66087;53.126;17.960;2024-01-30T08:35:26;102317.08;;;2.98;83.29
75555;BME280;66087;53.126;17.960;2024-01-30T08:37:54;102323.80;;;3.06;82.72
75555;BME280;66087;53.126;17.960;2024-01-30T08:40:21;102322.41;;;3.14;82.81
75555;BME280;66087;53.126;17.960;2024-01-30T08:42:48;102319.55;;;3.23;82.74
75555;BME280;66087;53.126;17.960;2024-01-30T08:45:15;102322.30;;;3.33;82.93
75555;BME280;66087;53.126;17.960;2024-01-30T08:47:42;102306.20;;;3.32;83.25
75555;BME280;66087;53.126;17.960;2024-01-30T08:50:09;102321.50;;;3.52;83.19
75555;BME280;66087;53.126;17.960;2024-01-30T08:52:35;102317.89;;;3.59;82.30
75555;BME280;66087;53.126;17.960;2024-01-30T08:55:03;102311.57;;;3.64;81.22
75555;BME280;66087;53.126;17.960;2024-01-30T08:57:30;102311.64;;;3.71;82.38
75555;BME280;66087;53.126;17.960;2024-01-30T09:00:29;102310.90;;;3.77;81.26
75555;BME280;66087;53.126;17.960;2024-01-30T09:02:57;102311.03;;;3.82;80.19
75555;BME280;66087;53.126;17.960;2024-01-30T09:05:26;102311.51;;;3.86;80.08
75555;BME280;66087;53.126;17.960;2024-01-30T09:08:00;102305.38;;;3.90;80.70
75555;BME280;66087;53.126;17.960;2024-01-30T09:10:26;102302.79;;;3.97;80.67
75555;BME280;66087;53.126;17.960;2024-01-30T09:12:53;102302.04;;;4.03;80.03
75555;BME280;66087;53.126;17.960;2024-01-30T09:15:21;102306.42;;;4.09;80.41
75555;BME280;66087;53.126;17.960;2024-01-30T09:17:48;102307.23;;;4.16;80.11
75555;BME280;66087;53.126;17.960;2024-01-30T09:20:14;102301.73;;;4.22;80.41
75555;BME280;66087;53.126;17.960;2024-01-30T09:22:45;102298.73;;;4.30;80.31
75555;BME280;66087;53.126;17.960;2024-01-30T09:25:12;102299.21;;;4.34;79.34
75555;BME280;66087;53.126;17.960;2024-01-30T09:27:38;102293.09;;;4.37;78.37
75555;BME280;66087;53.126;17.960;2024-01-30T09:30:05;102293.44;;;4.39;77.41
75555;BME280;66087;53.126;17.960;2024-01-30T09:32:31;102300.68;;;4.43;77.80
75555;BME280;66087;53.126;17.960;2024-01-30T09:34:57;102295.90;;;4.48;78.93
75555;BME280;66087;53.126;17.960;2024-01-30T09:37:29;102295.05;;;4.54;78.77
75555;BME280;66087;53.126;17.960;2024-01-30T09:40:01;102289.64;;;4.60;78.51
75555;BME280;66087;53.126;17.960;2024-01-30T09:42:34;102290.13;;;4.64;77.37
75555;BME280;66087;53.126;17.960;2024-01-30T09:45:03;102287.15;;;4.71;78.52
75555;BME280;66087;53.126;17.960;2024-01-30T09:47:36;102273.05;;;4.71;77.91
75555;BME280;66087;53.126;17.960;2024-01-30T09:50:06;102281.70;;;4.82;77.67
75555;BME280;66087;53.126;17.960;2024-01-30T09:52:36;102278.64;;;4.89;77.29
75555;BME280;66087;53.126;17.960;2024-01-30T09:55:06;102272.63;;;4.95;77.42
75555;BME280;66087;53.126;17.960;2024-01-30T09:57:38;102276.14;;;5.05;77.41
75555;BME280;66087;53.126;17.960;2024-01-30T10:00:07;102271.16;;;5.13;76.71
75555;BME280;66087;53.126;17.960;2024-01-30T10:06:28;102271.79;;;5.28;76.21
75555;BME280;66087;53.126;17.960;2024-01-30T10:08:55;102267.27;;;5.40;76.39
75555;BME280;66087;53.126;17.960;2024-01-30T10:11:21;102267.38;;;5.50;76.19
75555;BME280;66087;53.126;17.960;2024-01-30T10:13:47;102256.33;;;5.60;76.44
75555;BME280;66087;53.126;17.960;2024-01-30T10:16:22;102258.73;;;5.68;76.16
75555;BME280;66087;53.126;17.960;2024-01-30T10:18:50;102257.43;;;5.75;76.08
75555;BME280;66087;53.126;17.960;2024-01-30T10:21:19;102255.86;;;5.81;75.74
75555;BME280;66087;53.126;17.960;2024-01-30T10:23:55;102250.73;;;5.82;75.21
75555;BME280;66087;53.126;17.960;2024-01-30T10:26:38;102249.29;;;5.81;74.20
75555;BME280;66087;53.126;17.960;2024-01-30T10:29:04;102253.05;;;5.80;73.62
75555;BME280;66087;53.126;17.960;2024-01-30T10:31:36;102252.66;;;5.83;74.26
75555;BME280;66087;53.126;17.960;2024-01-30T10:34:05;102246.52;;;5.85;73.70
75555;BME280;66087;53.126;17.960;2024-01-30T10:36:40;102249.20;;;5.89;73.07
75555;BME280;66087;53.126;17.960;2024-01-30T10:39:09;102250.40;;;5.93;73.58
75555;BME280;66087;53.126;17.960;2024-01-30T10:41:43;102247.85;;;5.98;74.01
75555;BME280;66087;53.126;17.960;2024-01-30T10:47:57;102241.11;;;6.07;72.58
75555;BME280;66087;53.126;17.960;2024-01-30T10:54:03;102244.65;;;6.14;72.85
75555;BME280;66087;53.126;17.960;2024-01-30T10:56:35;102240.19;;;6.22;73.03
75555;BME280;66087;53.126;17.960;2024-01-30T10:59:23;102240.89;;;6.30;72.04
75555;BME280;66087;53.126;17.960;2024-01-30T11:01:55;102238.13;;;6.35;72.12
75555;BME280;66087;53.126;17.960;2024-01-30T11:05:04;102238.88;;;6.39;71.04
75555;BME280;66087;53.126;17.960;2024-01-30T11:07:30;102238.78;;;6.44;70.49
75555;BME280;66087;53.126;17.960;2024-01-30T11:10:03;102237.21;;;6.48;70.16
75555;BME280;66087;53.126;17.960;2024-01-30T11:12:32;102228.77;;;6.53;69.21
75555;BME280;66087;53.126;17.960;2024-01-30T11:19:23;102225.66;;;6.61;70.21
75555;BME280;66087;53.126;17.960;2024-01-30T11:21:52;102223.90;;;6.61;70.48
75555;BME280;66087;53.126;17.960;2024-01-30T11:24:24;102218.80;;;6.61;69.29
75555;BME280;66087;53.126;17.960;2024-01-30T11:26:58;102221.34;;;6.58;68.25
75555;BME280;66087;53.126;17.960;2024-01-30T11:29:28;102216.81;;;6.56;68.93
75555;BME280;66087;53.126;17.960;2024-01-30T11:31:55;102217.97;;;6.54;68.06
75555;BME280;66087;53.126;17.960;2024-01-30T11:34:23;102220.02;;;6.55;68.82
75555;BME280;66087;53.126;17.960;2024-01-30T11:36:57;102220.55;;;6.55;68.08
75555;BME280;66087;53.126;17.960;2024-01-30T11:39:26;102216.73;;;6.53;68.05
75555;BME280;66087;53.126;17.960;2024-01-30T11:42:00;102216.71;;;6.53;67.69
75555;BME280;66087;53.126;17.960;2024-01-30T11:44:27;102213.33;;;6.53;67.69
75555;BME280;66087;53.126;17.960;2024-01-30T11:46:53;102202.38;;;6.54;68.60
75555;BME280;66087;53.126;17.960;2024-01-30T11:49:20;102197.80;;;6.56;68.06
75555;BME280;66087;53.126;17.960;2024-01-30T11:51:47;102196.52;;;6.62;68.40
75555;BME280;66087;53.126;17.960;2024-01-30T11:54:21;102195.48;;;6.66;67.99
75555;BME280;66087;53.126;17.960;2024-01-30T11:56:48;102190.05;;;6.71;68.26
75555;BME280;66087;53.126;17.960;2024-01-30T11:59:15;102193.14;;;6.79;67.72
75555;BME280;66087;53.126;17.960;2024-01-30T12:01:41;102188.37;;;6.88;67.75
75555;BME280;66087;53.126;17.960;2024-01-30T12:04:13;102184.95;;;6.96;67.88
75555;BME280;66087;53.126;17.960;2024-01-30T12:06:39;102178.70;;;7.09;68.39
75555;BME280;66087;53.126;17.960;2024-01-30T12:09:09;102176.52;;;7.23;68.17
75555;BME280;66087;53.126;17.960;2024-01-30T12:11:47;102175.39;;;7.30;66.76
75555;BME280;66087;53.126;17.960;2024-01-30T12:14:15;102168.17;;;7.36;66.48
75555;BME280;66087;53.126;17.960;2024-01-30T12:16:42;102165.52;;;7.43;67.31
75555;BME280;66087;53.126;17.960;2024-01-30T12:19:23;102161.67;;;7.58;67.47
75555;BME280;66087;53.126;17.960;2024-01-30T12:26:27;102149.10;;;7.93;66.64
75555;BME280;66087;53.126;17.960;2024-01-30T12:29:04;102144.54;;;8.03;66.86
75555;BME280;66087;53.126;17.960;2024-01-30T12:31:32;102143.77;;;8.18;66.74
75555;BME280;66087;53.126;17.960;2024-01-30T12:34:03;102139.78;;;8.34;67.55
75555;BME280;66087;53.126;17.960;2024-01-30T12:36:35;102131.85;;;8.43;66.16
75555;BME280;66087;53.126;17.960;2024-01-30T12:39:11;102120.40;;;8.41;66.62
75555;BME280;66087;53.126;17.960;2024-01-30T12:41:43;102132.84;;;8.63;65.43
75555;BME280;66087;53.126;17.960;2024-01-30T12:44:10;102128.36;;;8.68;65.99
75555;BME280;66087;53.126;17.960;2024-01-30T12:46:47;102127.91;;;8.68;65.08
75555;BME280;66087;53.126;17.960;2024-01-30T12:52:52;102125.91;;;8.73;64.51
75555;BME280;66087;53.126;17.960;2024-01-30T12:55:19;102124.48;;;8.80;64.71
75555;BME280;66087;53.126;17.960;2024-01-30T12:57:48;102130.16;;;8.81;63.44
75555;BME280;66087;53.126;17.960;2024-01-30T13:00:15;102126.92;;;8.86;63.94
75555;BME280;66087;53.126;17.960;2024-01-30T13:02:43;102127.04;;;8.97;64.82
75555;BME280;66087;53.126;17.960;2024-01-30T13:05:12;102124.55;;;9.06;64.52
75555;BME280;66087;53.126;17.960;2024-01-30T13:07:54;102110.04;;;9.05;65.29
75555;BME280;66087;53.126;17.960;2024-01-30T13:10:32;102120.43;;;9.10;64.12
75555;BME280;66087;53.126;17.960;2024-01-30T13:13:07;102126.40;;;9.06;63.44
75555;BME280;66087;53.126;17.960;2024-01-30T13:15:40;102120.29;;;9.06;64.37
75555;BME280;66087;53.126;17.960;2024-01-30T13:18:21;102121.52;;;9.06;64.13
75555;BME280;66087;53.126;17.960;2024-01-30T13:20:48;102117.98;;;9.04;64.85